sensor_id;sensor_type;location;lat;lon;timestamp;pressure;altitude;pressure_sealevel;temperature;humidity
53858;BME280;39763;51.188;6.690;2023-01-31T00:00:14;102129.97;;;7.54;69.03
53858;BME280;39763;51.188;6.690;2023-01-31T00:01:45;102129.06;;;7.60;68.85
53858;BME280;39763;51.188;6.690;2023-01-31T00:03:17;102133.47;;;7.71;68.99
53858;BME280;39763;51.188;6.690;2023-01-31T00:04:49;102133.47;;;7.81;68.48
53858;BME280;39763;51.188;6.690;2023-01-31T00:06:21;102128.25;;;7.82;68.29
53858;BME280;39763;51.188;6.690;2023-01-31T00:07:53;102135.22;;;7.83;68.36
53858;BME280;39763;51.188;6.690;2023-01-31T00:09:24;102135.22;;;7.86;67.88
53858;BME280;39763;51.188;6.690;2023-01-31T00:10:57;102127.34;;;7.89;67.72
53858;BME280;39763;51.188;6.690;2023-01-31T00:12:28;102128.25;;;7.93;67.68
53858;BME280;39763;51.188;6.690;2023-01-31T00:14:00;102129.09;;;7.92;67.85
53858;BME280;39763;51.188;6.690;2023-01-31T00:15:33;102135.19;;;7.88;67.91
53858;BME280;39763;51.188;6.690;2023-01-31T00:17:05;102127.38;;;7.86;68.06
53858;BME280;39763;51.188;6.690;2023-01-31T00:18:36;102136.97;;;7.86;67.78
53858;BME280;39763;51.188;6.690;2023-01-31T00:20:10;102136.94;;;7.79;67.50
53858;BME280;39763;51.188;6.690;2023-01-31T00:21:41;102127.38;;;7.71;67.57
53858;BME280;39763;51.188;6.690;2023-01-31T00:23:15;102128.22;;;7.61;67.45
53858;BME280;39763;51.188;6.690;2023-01-31T00:24:46;102125.59;;;7.56;67.67
53858;BME280;39763;51.188;6.690;2023-01-31T00:26:18;102122.97;;;7.52;68.29
53858;BME280;39763;51.188;6.690;2023-01-31T00:27:50;102135.16;;;7.47;68.24
53858;BME280;39763;51.188;6.690;2023-01-31T00:29:22;102139.50;;;7.46;68.20
53858;BME280;39763;51.188;6.690;2023-01-31T00:30:55;102147.34;;;7.43;68.30
53858;BME280;39763;51.188;6.690;2023-01-31T00:32:28;102137.78;;;7.40;68.36
53858;BME280;39763;51.188;6.690;2023-01-31T00:34:00;102140.38;;;7.36;68.48
53858;BME280;39763;51.188;6.690;2023-01-31T00:35:32;102134.25;;;7.32;68.09
53858;BME280;39763;51.188;6.690;2023-01-31T00:37:03;102137.72;;;7.28;68.36
53858;BME280;39763;51.188;6.690;2023-01-31T00:38:36;102138.59;;;7.23;68.43
53858;BME280;39763;51.188;6.690;2023-01-31T00:40:09;102130.72;;;7.17;68.59
53858;BME280;39763;51.188;6.690;2023-01-31T00:41:41;102134.19;;;7.11;68.63
53858;BME280;39763;51.188;6.690;2023-01-31T00:43:15;102137.66;;;7.05;68.72
53858;BME280;39763;51.188;6.690;2023-01-31T00:44:47;102132.38;;;6.98;68.76
53858;BME280;39763;51.188;6.690;2023-01-31T00:46:20;102135.03;;;6.96;68.87
53858;BME280;39763;51.188;6.690;2023-01-31T00:47:52;102139.34;;;6.94;68.93
53858;BME280;39763;51.188;6.690;2023-01-31T00:49:23;102141.06;;;6.91;69.06
53858;BME280;39763;51.188;6.690;2023-01-31T00:50:55;102139.34;;;6.93;69.29
53858;BME280;39763;51.188;6.690;2023-01-31T00:52:27;102143.69;;;6.92;69.02
53858;BME280;39763;51.188;6.690;2023-01-31T00:54:00;102132.38;;;6.90;69.25
53858;BME280;39763;51.188;6.690;2023-01-31T00:55:31;102131.50;;;6.90;68.97
53858;BME280;39763;51.188;6.690;2023-01-31T00:57:03;102145.41;;;6.86;69.15
53858;BME280;39763;51.188;6.690;2023-01-31T00:58:34;102139.28;;;6.85;69.13
53858;BME280;39763;51.188;6.690;2023-01-31T01:00:08;102147.13;;;6.85;69.12
53858;BME280;39763;51.188;6.690;2023-01-31T01:01:41;102146.25;;;6.83;69.18
53858;BME280;39763;51.188;6.690;2023-01-31T01:03:15;102148.00;;;6.80;69.36
53858;BME280;39763;51.188;6.690;2023-01-31T01:04:47;102147.97;;;6.77;69.23
53858;BME280;39763;51.188;6.690;2023-01-31T01:06:19;102140.97;;;6.72;69.17
53858;BME280;39763;51.188;6.690;2023-01-31T01:07:51;102145.31;;;6.72;69.54
53858;BME280;39763;51.188;6.690;2023-01-31T01:09:22;102142.72;;;6.72;69.53
53858;BME280;39763;51.188;6.690;2023-01-31T01:10:55;102139.25;;;6.76;69.67
53858;BME280;39763;51.188;6.690;2023-01-31T01:12:27;102139.31;;;6.81;69.61
53858;BME280;39763;51.188;6.690;2023-01-31T01:13:59;102140.16;;;6.80;69.53
53858;BME280;39763;51.188;6.690;2023-01-31T01:15:30;102140.16;;;6.78;69.31
53858;BME280;39763;51.188;6.690;2023-01-31T01:17:03;102141.88;;;6.78;69.43
53858;BME280;39763;51.188;6.690;2023-01-31T01:18:36;102139.25;;;6.76;69.67
53858;BME280;39763;51.188;6.690;2023-01-31T01:20:08;102141.91;;;6.79;69.53
53858;BME280;39763;51.188;6.690;2023-01-31T01:21:42;102141.03;;;6.83;69.83
53858;BME280;39763;51.188;6.690;2023-01-31T01:23:14;102145.44;;;6.90;69.58
53858;BME280;39763;51.188;6.690;2023-01-31T01:24:46;102144.59;;;6.94;69.64
53858;BME280;39763;51.188;6.690;2023-01-31T01:26:19;102138.47;;;6.98;69.87
53858;BME280;39763;51.188;6.690;2023-01-31T01:27:52;102133.28;;;7.03;69.19
53858;BME280;39763;51.188;6.690;2023-01-31T01:29:24;102142.03;;;7.08;68.97
53858;BME280;39763;51.188;6.690;2023-01-31T01:30:55;102141.19;;;7.12;68.93
53858;BME280;39763;51.188;6.690;2023-01-31T01:32:28;102136.81;;;7.14;68.97
53858;BME280;39763;51.188;6.690;2023-01-31T01:34:01;102129.84;;;7.16;68.77
53858;BME280;39763;51.188;6.690;2023-01-31T01:35:32;102134.19;;;7.14;68.29
53858;BME280;39763;51.188;6.690;2023-01-31T01:37:06;102135.91;;;7.06;68.38
53858;BME280;39763;51.188;6.690;2023-01-31T01:38:42;102130.66;;;7.03;68.34
53858;BME280;39763;51.188;6.690;2023-01-31T01:40:14;102136.75;;;7.02;68.46
53858;BME280;39763;51.188;6.690;2023-01-31T01:41:45;102128.88;;;6.91;68.67
53858;BME280;39763;51.188;6.690;2023-01-31T01:43:17;102133.22;;;6.88;68.84
53858;BME280;39763;51.188;6.690;2023-01-31T01:44:50;102120.16;;;6.85;68.81
53858;BME280;39763;51.188;6.690;2023-01-31T01:46:23;102115.78;;;6.84;69.15
53858;BME280;39763;51.188;6.690;2023-01-31T01:47:58;102121.03;;;6.85;68.93
53858;BME280;39763;51.188;6.690;2023-01-31T01:49:32;102126.25;;;6.82;69.03
53858;BME280;39763;51.188;6.690;2023-01-31T01:51:05;102132.34;;;6.81;69.11
53858;BME280;39763;51.188;6.690;2023-01-31T01:52:37;102124.47;;;6.77;69.37
53858;BME280;39763;51.188;6.690;2023-01-31T01:54:12;102128.84;;;6.79;69.52
53858;BME280;39763;51.188;6.690;2023-01-31T01:55:46;102122.75;;;6.80;69.06
53858;BME280;39763;51.188;6.690;2023-01-31T01:57:20;102124.47;;;6.77;69.39
53858;BME280;39763;51.188;6.690;2023-01-31T01:58:56;102126.22;;;6.78;69.25
53858;BME280;39763;51.188;6.690;2023-01-31T02:00:30;102125.34;;;6.79;69.26
53858;BME280;39763;51.188;6.690;2023-01-31T02:02:03;102119.25;;;6.75;69.31
53858;BME280;39763;51.188;6.690;2023-01-31T02:03:37;102121.00;;;6.78;69.48
53858;BME280;39763;51.188;6.690;2023-01-31T02:05:08;102114.94;;;6.82;69.48
53858;BME280;39763;51.188;6.690;2023-01-31T02:06:44;102115.78;;;6.78;69.48
53858;BME280;39763;51.188;6.690;2023-01-31T02:08:17;102126.22;;;6.76;69.39
53858;BME280;39763;51.188;6.690;2023-01-31T02:09:50;102126.22;;;6.79;69.47
53858;BME280;39763;51.188;6.690;2023-01-31T02:11:25;102114.03;;;6.84;69.50
53858;BME280;39763;51.188;6.690;2023-01-31T02:12:57;102119.31;;;6.89;69.65
53858;BME280;39763;51.188;6.690;2023-01-31T02:14:32;102123.66;;;6.90;69.52
53858;BME280;39763;51.188;6.690;2023-01-31T02:16:03;102121.06;;;6.91;69.25
53858;BME280;39763;51.188;6.690;2023-01-31T02:17:35;102122.78;;;6.89;69.24
53858;BME280;39763;51.188;6.690;2023-01-31T02:19:10;102117.56;;;6.88;69.11
53858;BME280;39763;51.188;6.690;2023-01-31T02:20:54;102109.72;;;6.88;69.17
53858;BME280;39763;51.188;6.690;2023-01-31T02:22:30;102112.31;;;6.86;69.30
53858;BME280;39763;51.188;6.690;2023-01-31T02:26:15;102118.44;;;6.90;69.31
53858;BME280;39763;51.188;6.690;2023-01-31T02:29:53;102117.59;;;6.92;69.13
53858;BME280;39763;51.188;6.690;2023-01-31T02:33:20;102121.94;;;6.92;68.96
53858;BME280;39763;51.188;6.690;2023-01-31T02:34:55;102132.34;;;6.89;69.04
53858;BME280;39763;51.188;6.690;2023-01-31T02:36:33;102126.25;;;6.87;69.19
53858;BME280;39763;51.188;6.690;2023-01-31T02:38:11;102131.47;;;6.82;69.20
53858;BME280;39763;51.188;6.690;2023-01-31T02:39:50;102125.34;;;6.83;69.21
53858;BME280;39763;51.188;6.690;2023-01-31T02:41:26;102130.59;;;6.85;69.22
53858;BME280;39763;51.188;6.690;2023-01-31T02:42:58;102132.34;;;6.86;68.96
53858;BME280;39763;51.188;6.690;2023-01-31T02:44:34;102132.34;;;6.81;69.16
53858;BME280;39763;51.188;6.690;2023-01-31T02:46:28;102138.41;;;6.76;69.40
53858;BME280;39763;51.188;6.690;2023-01-31T02:48:05;102135.78;;;6.74;69.23
53858;BME280;39763;51.188;6.690;2023-01-31T02:49:47;102131.44;;;6.78;69.43
53858;BME280;39763;51.188;6.690;2023-01-31T02:51:23;102137.53;;;6.83;69.03
53858;BME280;39763;51.188;6.690;2023-01-31T02:53:02;102137.53;;;6.83;68.92
53858;BME280;39763;51.188;6.690;2023-01-31T02:54:36;102127.97;;;6.80;69.11
53858;BME280;39763;51.188;6.690;2023-01-31T02:56:28;102124.50;;;6.84;69.24
53858;BME280;39763;51.188;6.690;2023-01-31T02:58:01;102127.13;;;6.89;69.17
53858;BME280;39763;51.188;6.690;2023-01-31T02:59:33;102128.03;;;6.91;69.01
53858;BME280;39763;51.188;6.690;2023-01-31T03:01:08;102124.56;;;6.93;69.09
53858;BME280;39763;51.188;6.690;2023-01-31T03:02:44;102125.44;;;6.94;68.64
53858;BME280;39763;51.188;6.690;2023-01-31T03:04:16;102128.03;;;6.91;68.71
53858;BME280;39763;51.188;6.690;2023-01-31T03:06:06;102121.03;;;6.87;68.64
53858;BME280;39763;51.188;6.690;2023-01-31T03:07:39;102122.75;;;6.80;68.84
53858;BME280;39763;51.188;6.690;2023-01-31T03:09:13;102127.09;;;6.80;68.90
53858;BME280;39763;51.188;6.690;2023-01-31T03:10:57;102115.75;;;6.75;68.71
53858;BME280;39763;51.188;6.690;2023-01-31T03:12:47;102109.63;;;6.71;68.88
53858;BME280;39763;51.188;6.690;2023-01-31T03:14:22;102117.38;;;6.56;68.91
53858;BME280;39763;51.188;6.690;2023-01-31T03:15:58;102116.50;;;6.49;69.43
53858;BME280;39763;51.188;6.690;2023-01-31T03:17:53;102114.69;;;6.42;69.68
53858;BME280;39763;51.188;6.690;2023-01-31T03:19:31;102105.09;;;6.33;70.04
53858;BME280;39763;51.188;6.690;2023-01-31T03:21:07;102105.09;;;6.32;69.70
53858;BME280;39763;51.188;6.690;2023-01-31T03:22:41;102104.16;;;6.27;69.99
53858;BME280;39763;51.188;6.690;2023-01-31T03:24:14;102100.69;;;6.22;70.21
53858;BME280;39763;51.188;6.690;2023-01-31T03:25:48;102091.09;;;6.18;70.70
53858;BME280;39763;51.188;6.690;2023-01-31T03:27:21;102097.97;;;6.11;70.56
53858;BME280;39763;51.188;6.690;2023-01-31T03:28:56;102094.47;;;6.05;70.72
53858;BME280;39763;51.188;6.690;2023-01-31T03:30:32;102094.44;;;6.01;70.77
53858;BME280;39763;51.188;6.690;2023-01-31T03:32:10;102090.09;;;6.00;70.94
53858;BME280;39763;51.188;6.690;2023-01-31T03:33:46;102091.78;;;5.95;70.92
53858;BME280;39763;51.188;6.690;2023-01-31T03:35:19;102093.50;;;5.92;71.18
53858;BME280;39763;51.188;6.690;2023-01-31T03:36:54;102093.44;;;5.87;71.55
53858;BME280;39763;51.188;6.690;2023-01-31T03:38:55;102082.94;;;5.81;71.51
53858;BME280;39763;51.188;6.690;2023-01-31T03:40:29;102083.81;;;5.82;72.21
53858;BME280;39763;51.188;6.690;2023-01-31T03:42:03;102082.06;;;5.82;71.61
53858;BME280;39763;51.188;6.690;2023-01-31T03:43:43;102075.97;;;5.77;72.44
53858;BME280;39763;51.188;6.690;2023-01-31T03:45:17;102079.44;;;5.76;72.40
53858;BME280;39763;51.188;6.690;2023-01-31T03:46:52;102088.13;;;5.75;72.42
53858;BME280;39763;51.188;6.690;2023-01-31T03:48:26;102088.97;;;5.73;72.49
53858;BME280;39763;51.188;6.690;2023-01-31T03:50:01;102088.94;;;5.71;72.99
53858;BME280;39763;51.188;6.690;2023-01-31T03:51:33;102090.69;;;5.72;72.66
53858;BME280;39763;51.188;6.690;2023-01-31T03:53:09;102088.06;;;5.71;73.17
53858;BME280;39763;51.188;6.690;2023-01-31T03:54:44;102092.44;;;5.73;72.61
53858;BME280;39763;51.188;6.690;2023-01-31T03:56:19;102092.41;;;5.70;73.10
53858;BME280;39763;51.188;6.690;2023-01-31T03:57:51;102089.78;;;5.68;73.45
53858;BME280;39763;51.188;6.690;2023-01-31T03:59:25;102089.75;;;5.64;73.47
53858;BME280;39763;51.188;6.690;2023-01-31T04:00:58;102085.41;;;5.64;73.42
53858;BME280;39763;51.188;6.690;2023-01-31T04:02:32;102081.06;;;5.65;73.22
53858;BME280;39763;51.188;6.690;2023-01-31T04:04:06;102082.81;;;5.63;73.79
53858;BME280;39763;51.188;6.690;2023-01-31T04:05:38;102085.41;;;5.63;73.49
53858;BME280;39763;51.188;6.690;2023-01-31T04:07:11;102090.63;;;5.61;73.71
53858;BME280;39763;51.188;6.690;2023-01-31T04:08:44;102085.38;;;5.60;73.90
53858;BME280;39763;51.188;6.690;2023-01-31T04:10:18;102080.16;;;5.58;73.79
53858;BME280;39763;51.188;6.690;2023-01-31T04:11:50;102075.78;;;5.57;73.53
53858;BME280;39763;51.188;6.690;2023-01-31T04:13:22;102079.28;;;5.58;73.43
53858;BME280;39763;51.188;6.690;2023-01-31T04:14:53;102070.56;;;5.56;73.80
53858;BME280;39763;51.188;6.690;2023-01-31T04:16:25;102067.97;;;5.57;74.11
53858;BME280;39763;51.188;6.690;2023-01-31T04:17:56;102072.31;;;5.57;74.36
53858;BME280;39763;51.188;6.690;2023-01-31T04:19:28;102075.81;;;5.59;74.54
53858;BME280;39763;51.188;6.690;2023-01-31T04:20:59;102068.88;;;5.61;73.77
53858;BME280;39763;51.188;6.690;2023-01-31T04:22:31;102067.16;;;5.61;73.88
53858;BME280;39763;51.188;6.690;2023-01-31T04:24:04;102063.69;;;5.64;74.44
53858;BME280;39763;51.188;6.690;2023-01-31T04:25:35;102061.09;;;5.65;74.01
53858;BME280;39763;51.188;6.690;2023-01-31T04:27:07;102061.97;;;5.66;73.95
53858;BME280;39763;51.188;6.690;2023-01-31T04:28:38;102066.31;;;5.67;73.92
53858;BME280;39763;51.188;6.690;2023-01-31T04:30:10;102057.63;;;5.68;74.22
53858;BME280;39763;51.188;6.690;2023-01-31T04:31:42;102057.63;;;5.68;74.34
53858;BME280;39763;51.188;6.690;2023-01-31T04:33:13;102055.03;;;5.70;74.39
53858;BME280;39763;51.188;6.690;2023-01-31T04:34:45;102062.88;;;5.71;73.84
53858;BME280;39763;51.188;6.690;2023-01-31T04:36:16;102064.63;;;5.71;74.30
53858;BME280;39763;51.188;6.690;2023-01-31T04:37:48;102053.28;;;5.68;74.32
53858;BME280;39763;51.188;6.690;2023-01-31T04:39:21;102061.13;;;5.68;74.01
53858;BME280;39763;51.188;6.690;2023-01-31T04:40:52;102055.88;;;5.65;74.37
53858;BME280;39763;51.188;6.690;2023-01-31T04:42:24;102068.91;;;5.67;74.64
53858;BME280;39763;51.188;6.690;2023-01-31T04:43:55;102069.78;;;5.66;74.30
53858;BME280;39763;51.188;6.690;2023-01-31T04:45:27;102067.16;;;5.66;74.51
53858;BME280;39763;51.188;6.690;2023-01-31T04:46:59;102065.44;;;5.66;74.74
53858;BME280;39763;51.188;6.690;2023-01-31T04:48:30;102061.97;;;5.66;74.93
53858;BME280;39763;51.188;6.690;2023-01-31T04:50:02;102053.25;;;5.65;74.80
53858;BME280;39763;51.188;6.690;2023-01-31T04:51:34;102066.28;;;5.64;75.10
53858;BME280;39763;51.188;6.690;2023-01-31T04:53:05;102056.75;;;5.63;75.19
53858;BME280;39763;51.188;6.690;2023-01-31T04:54:40;102047.19;;;5.62;74.95
53858;BME280;39763;51.188;6.690;2023-01-31T04:56:12;102055.00;;;5.62;75.37
53858;BME280;39763;51.188;6.690;2023-01-31T04:57:44;102055.88;;;5.65;75.14
53858;BME280;39763;51.188;6.690;2023-01-31T04:59:15;102052.41;;;5.63;75.65
53858;BME280;39763;51.188;6.690;2023-01-31T05:00:47;102056.75;;;5.66;75.78
53858;BME280;39763;51.188;6.690;2023-01-31T05:02:18;102063.69;;;5.65;75.28
53858;BME280;39763;51.188;6.690;2023-01-31T05:03:50;102055.03;;;5.70;75.82
53858;BME280;39763;51.188;6.690;2023-01-31T05:05:21;102044.69;;;5.76;75.83
53858;BME280;39763;51.188;6.690;2023-01-31T05:06:53;102044.69;;;5.77;75.78
53858;BME280;39763;51.188;6.690;2023-01-31T05:08:24;102042.09;;;5.82;75.57
53858;BME280;39763;51.188;6.690;2023-01-31T05:09:57;102045.59;;;5.84;75.55
53858;BME280;39763;51.188;6.690;2023-01-31T05:11:29;102046.50;;;5.87;76.13
53858;BME280;39763;51.188;6.690;2023-01-31T05:13:00;102032.66;;;5.94;75.47
53858;BME280;39763;51.188;6.690;2023-01-31T05:14:32;102032.66;;;5.96;75.61
53858;BME280;39763;51.188;6.690;2023-01-31T05:16:05;102024.88;;;5.97;75.44
53858;BME280;39763;51.188;6.690;2023-01-31T05:17:37;102026.59;;;5.95;75.34
53858;BME280;39763;51.188;6.690;2023-01-31T05:19:09;102024.88;;;5.99;76.16
53858;BME280;39763;51.188;6.690;2023-01-31T05:20:40;102022.28;;;6.02;75.52
53858;BME280;39763;51.188;6.690;2023-01-31T05:22:12;102026.69;;;6.08;75.61
53858;BME280;39763;51.188;6.690;2023-01-31T05:23:44;102027.53;;;6.10;75.77
53858;BME280;39763;51.188;6.690;2023-01-31T05:25:17;102023.22;;;6.15;75.74
53858;BME280;39763;51.188;6.690;2023-01-31T05:26:48;102021.50;;;6.17;75.93
53858;BME280;39763;51.188;6.690;2023-01-31T05:28:22;102021.53;;;6.20;75.48
53858;BME280;39763;51.188;6.690;2023-01-31T05:29:54;102024.16;;;6.23;75.64
53858;BME280;39763;51.188;6.690;2023-01-31T05:31:28;102026.78;;;6.27;75.55
53858;BME280;39763;51.188;6.690;2023-01-31T05:33:00;102025.06;;;6.31;75.10
53858;BME280;39763;51.188;6.690;2023-01-31T05:34:31;102024.19;;;6.32;75.18
53858;BME280;39763;51.188;6.690;2023-01-31T05:36:04;102017.28;;;6.37;74.78
53858;BME280;39763;51.188;6.690;2023-01-31T05:37:36;102030.31;;;6.37;75.00
53858;BME280;39763;51.188;6.690;2023-01-31T05:39:07;102032.94;;;6.40;75.04
53858;BME280;39763;51.188;6.690;2023-01-31T05:40:40;102024.22;;;6.41;74.97
53858;BME280;39763;51.188;6.690;2023-01-31T05:42:12;102021.63;;;6.41;74.58
53858;BME280;39763;51.188;6.690;2023-01-31T05:43:43;102017.28;;;6.43;74.91
53858;BME280;39763;51.188;6.690;2023-01-31T05:45:15;102015.56;;;6.44;74.36
53858;BME280;39763;51.188;6.690;2023-01-31T05:46:47;102014.66;;;6.40;74.40
53858;BME280;39763;51.188;6.690;2023-01-31T05:48:18;102008.56;;;6.36;74.68
53858;BME280;39763;51.188;6.690;2023-01-31T05:49:50;102012.03;;;6.34;74.40
53858;BME280;39763;51.188;6.690;2023-01-31T05:51:21;102010.28;;;6.30;74.65
53858;BME280;39763;51.188;6.690;2023-01-31T05:52:53;102012.00;;;6.29;74.81
53858;BME280;39763;51.188;6.690;2023-01-31T05:54:25;102015.50;;;6.30;74.76
53858;BME280;39763;51.188;6.690;2023-01-31T05:55:58;102015.47;;;6.27;74.62
53858;BME280;39763;51.188;6.690;2023-01-31T05:57:30;102013.72;;;6.27;74.82
53858;BME280;39763;51.188;6.690;2023-01-31T05:59:02;102005.03;;;6.28;74.74
53858;BME280;39763;51.188;6.690;2023-01-31T06:00:34;102004.16;;;6.25;74.86
53858;BME280;39763;51.188;6.690;2023-01-31T06:02:05;102005.03;;;6.25;75.07
53858;BME280;39763;51.188;6.690;2023-01-31T06:03:37;102001.56;;;6.28;74.75
53858;BME280;39763;51.188;6.690;2023-01-31T06:05:09;102002.44;;;6.30;74.92
53858;BME280;39763;51.188;6.690;2023-01-31T06:06:41;101989.41;;;6.30;74.96
53858;BME280;39763;51.188;6.690;2023-01-31T06:08:12;101992.03;;;6.33;74.96
53858;BME280;39763;51.188;6.690;2023-01-31T06:09:44;101988.56;;;6.34;74.37
53858;BME280;39763;51.188;6.690;2023-01-31T06:11:17;101992.03;;;6.33;74.63
53858;BME280;39763;51.188;6.690;2023-01-31T06:12:48;101977.25;;;6.35;74.76
53858;BME280;39763;51.188;6.690;2023-01-31T06:14:20;101982.50;;;6.38;74.38
53858;BME280;39763;51.188;6.690;2023-01-31T06:15:52;101975.53;;;6.37;74.24
53858;BME280;39763;51.188;6.690;2023-01-31T06:17:23;101986.81;;;6.39;74.05
53858;BME280;39763;51.188;6.690;2023-01-31T06:18:55;101978.13;;;6.38;74.53
53858;BME280;39763;51.188;6.690;2023-01-31T06:20:27;101982.50;;;6.38;74.50
53858;BME280;39763;51.188;6.690;2023-01-31T06:21:59;101980.72;;;6.40;74.37
53858;BME280;39763;51.188;6.690;2023-01-31T06:23:30;101980.75;;;6.43;74.26
53858;BME280;39763;51.188;6.690;2023-01-31T06:25:02;101986.00;;;6.46;74.43
53858;BME280;39763;51.188;6.690;2023-01-31T06:26:36;101987.75;;;6.50;74.12
53858;BME280;39763;51.188;6.690;2023-01-31T06:28:08;101982.53;;;6.53;73.98
53858;BME280;39763;51.188;6.690;2023-01-31T06:29:39;101982.53;;;6.52;73.79
53858;BME280;39763;51.188;6.690;2023-01-31T06:31:11;101986.03;;;6.51;73.89
53858;BME280;39763;51.188;6.690;2023-01-31T06:32:43;101979.06;;;6.51;73.72
53858;BME280;39763;51.188;6.690;2023-01-31T06:34:14;101979.06;;;6.51;74.18
53858;BME280;39763;51.188;6.690;2023-01-31T06:35:46;101984.28;;;6.53;74.02
53858;BME280;39763;51.188;6.690;2023-01-31T06:37:17;101985.13;;;6.53;74.16
53858;BME280;39763;51.188;6.690;2023-01-31T06:38:49;101998.19;;;6.56;73.87
53858;BME280;39763;51.188;6.690;2023-01-31T06:40:21;101990.41;;;6.61;73.88
53858;BME280;39763;51.188;6.690;2023-01-31T06:41:54;101990.41;;;6.62;73.69
53858;BME280;39763;51.188;6.690;2023-01-31T06:43:25;102003.44;;;6.59;73.59
53858;BME280;39763;51.188;6.690;2023-01-31T06:44:57;102013.06;;;6.66;73.75
53858;BME280;39763;51.188;6.690;2023-01-31T06:46:29;102012.19;;;6.72;73.66
53858;BME280;39763;51.188;6.690;2023-01-31T06:48:00;102013.09;;;6.82;73.76
53858;BME280;39763;51.188;6.690;2023-01-31T06:49:32;102016.56;;;6.84;73.89
53858;BME280;39763;51.188;6.690;2023-01-31T06:51:04;102000.06;;;6.92;73.24
53858;BME280;39763;51.188;6.690;2023-01-31T06:52:35;102006.16;;;6.94;72.58
53858;BME280;39763;51.188;6.690;2023-01-31T06:54:07;102017.47;;;6.92;72.43
53858;BME280;39763;51.188;6.690;2023-01-31T06:55:39;102013.13;;;6.94;72.87
53858;BME280;39763;51.188;6.690;2023-01-31T06:57:11;102016.59;;;7.02;72.25
53858;BME280;39763;51.188;6.690;2023-01-31T06:58:43;102012.25;;;7.01;72.22
53858;BME280;39763;51.188;6.690;2023-01-31T07:00:15;102018.34;;;7.04;72.04
53858;BME280;39763;51.188;6.690;2023-01-31T07:01:48;102018.34;;;6.98;72.13
53858;BME280;39763;51.188;6.690;2023-01-31T07:03:20;102019.22;;;7.02;72.11
53858;BME280;39763;51.188;6.690;2023-01-31T07:04:51;102024.47;;;7.05;71.68
53858;BME280;39763;51.188;6.690;2023-01-31T07:06:23;102006.16;;;7.03;71.38
53858;BME280;39763;51.188;6.690;2023-01-31T07:07:54;102010.53;;;6.97;71.33
53858;BME280;39763;51.188;6.690;2023-01-31T07:09:27;102005.28;;;6.91;71.30
53858;BME280;39763;51.188;6.690;2023-01-31T07:10:58;102014.84;;;6.89;71.31
53858;BME280;39763;51.188;6.690;2023-01-31T07:12:33;102015.69;;;6.85;71.64
53858;BME280;39763;51.188;6.690;2023-01-31T07:14:04;102001.75;;;6.83;71.69
53858;BME280;39763;51.188;6.690;2023-01-31T07:15:36;102016.56;;;6.81;71.41
53858;BME280;39763;51.188;6.690;2023-01-31T07:17:07;102020.03;;;6.75;72.00
53858;BME280;39763;51.188;6.690;2023-01-31T07:18:39;102015.69;;;6.79;71.79
53858;BME280;39763;51.188;6.690;2023-01-31T07:20:11;102007.84;;;6.77;71.80
53858;BME280;39763;51.188;6.690;2023-01-31T07:21:42;102012.19;;;6.75;71.93
53858;BME280;39763;51.188;6.690;2023-01-31T07:23:14;102015.69;;;6.76;71.91
53858;BME280;39763;51.188;6.690;2023-01-31T07:24:46;102005.22;;;6.76;71.63
53858;BME280;39763;51.188;6.690;2023-01-31T07:26:19;102003.47;;;6.71;72.08
53858;BME280;39763;51.188;6.690;2023-01-31T07:27:52;101997.41;;;6.76;72.16
53858;BME280;39763;51.188;6.690;2023-01-31T07:29:24;101992.19;;;6.79;71.83
53858;BME280;39763;51.188;6.690;2023-01-31T07:30:55;101976.53;;;6.80;71.41
53858;BME280;39763;51.188;6.690;2023-01-31T07:32:33;101974.81;;;6.82;71.91
53858;BME280;39763;51.188;6.690;2023-01-31T07:34:05;101966.09;;;6.86;71.26
53858;BME280;39763;51.188;6.690;2023-01-31T07:35:36;101968.69;;;6.88;71.31
53858;BME280;39763;51.188;6.690;2023-01-31T07:37:08;101965.22;;;6.89;71.12
53858;BME280;39763;51.188;6.690;2023-01-31T07:38:40;101965.22;;;6.87;70.88
53858;BME280;39763;51.188;6.690;2023-01-31T07:40:12;101961.72;;;6.87;70.82
53858;BME280;39763;51.188;6.690;2023-01-31T07:41:44;101972.19;;;6.87;71.23
53858;BME280;39763;51.188;6.690;2023-01-31T07:43:18;101976.53;;;6.86;71.22
53858;BME280;39763;51.188;6.690;2023-01-31T07:44:51;101980.88;;;6.81;71.44
53858;BME280;39763;51.188;6.690;2023-01-31T07:46:22;101983.50;;;6.86;71.56
53858;BME280;39763;51.188;6.690;2023-01-31T07:47:56;101980.03;;;6.90;71.57
53858;BME280;39763;51.188;6.690;2023-01-31T07:49:27;101982.66;;;7.00;71.53
53858;BME280;39763;51.188;6.690;2023-01-31T07:50:59;101979.19;;;7.06;71.26
53858;BME280;39763;51.188;6.690;2023-01-31T07:52:31;101961.75;;;7.14;70.18
53858;BME280;39763;51.188;6.690;2023-01-31T07:54:03;101970.47;;;7.16;70.09
53858;BME280;39763;51.188;6.690;2023-01-31T07:55:35;101980.91;;;7.15;70.29
53858;BME280;39763;51.188;6.690;2023-01-31T07:57:06;101972.22;;;7.14;70.32
53858;BME280;39763;51.188;6.690;2023-01-31T07:58:40;101984.41;;;7.15;70.30
53858;BME280;39763;51.188;6.690;2023-01-31T08:00:12;101973.97;;;7.23;69.47
53858;BME280;39763;51.188;6.690;2023-01-31T08:02:03;101975.72;;;7.22;69.65
53858;BME280;39763;51.188;6.690;2023-01-31T08:03:53;101985.28;;;7.22;69.75
53858;BME280;39763;51.188;6.690;2023-01-31T08:05:24;101977.47;;;7.23;69.64
53858;BME280;39763;51.188;6.690;2023-01-31T08:06:56;101983.56;;;7.27;69.75
53858;BME280;39763;51.188;6.690;2023-01-31T08:08:29;101974.81;;;7.28;69.51
53858;BME280;39763;51.188;6.690;2023-01-31T08:10:01;101953.06;;;7.33;69.30
53858;BME280;39763;51.188;6.690;2023-01-31T08:11:32;101965.25;;;7.36;68.91
53858;BME280;39763;51.188;6.690;2023-01-31T08:13:04;101964.41;;;7.35;68.79
53858;BME280;39763;51.188;6.690;2023-01-31T08:14:38;101951.31;;;7.32;68.52
53858;BME280;39763;51.188;6.690;2023-01-31T08:16:09;101960.91;;;7.30;68.62
53858;BME280;39763;51.188;6.690;2023-01-31T08:17:41;101958.28;;;7.27;68.96
53858;BME280;39763;51.188;6.690;2023-01-31T08:19:12;101960.03;;;7.28;69.11